CPT2 weather

Killarney Airport
Killarney, Ontario, Canada

Public forecast

Using degrees Celsius for public forecast. Weather courtesy of forecast.io.

METAR (pilot weather report)

Closest report is Gore Bay Manitoulin Airport, 45.2 nm (83.6 km) W. Retrieved 2019/05/22 00:00 UTC (11 minutes ago):

CYZE 220000Z AUTO 21003KT 9SM CLR 13/05 A3016 RMK SLP218

TAF (pilot weather forecast)

Closest forecast is Gore Bay Manitoulin Airport, 45.2 nm (83.6 km) W. Retrieved 2019/05/21 20:00 UTC (4 hours ago):

TAF CYZE 211938Z 2120/2122 25008KT P6SM SKC RMK FCST BASED ON AUTO OBS. NXT FCST WILL BE ISSUED AT 220945Z